sensor_id;sensor_type;location;lat;lon;timestamp;P1;durP1;ratioP1;P2;durP2;ratioP2
71166;SDS011;58864;45.928;20.078;2023-02-01T00:00:10;20.53;;;8.37;;
71166;SDS011;58864;45.928;20.078;2023-02-01T00:02:35;17.38;;;6.07;;
71166;SDS011;58864;45.928;20.078;2023-02-01T00:05:03;22.35;;;8.13;;
71166;SDS011;58864;45.928;20.078;2023-02-01T00:07:28;19.70;;;7.88;;
71166;SDS011;58864;45.928;20.078;2023-02-01T00:09:52;17.33;;;6.70;;
71166;SDS011;58864;45.928;20.078;2023-02-01T00:12:17;19.73;;;6.37;;
71166;SDS011;58864;45.928;20.078;2023-02-01T00:14:41;17.03;;;6.33;;
71166;SDS011;58864;45.928;20.078;2023-02-01T00:17:06;13.50;;;5.70;;
71166;SDS011;58864;45.928;20.078;2023-02-01T00:19:31;15.35;;;6.28;;
71166;SDS011;58864;45.928;20.078;2023-02-01T00:21:55;15.70;;;5.37;;
71166;SDS011;58864;45.928;20.078;2023-02-01T00:24:19;15.68;;;5.18;;
71166;SDS011;58864;45.928;20.078;2023-02-01T00:26:44;16.60;;;5.77;;
71166;SDS011;58864;45.928;20.078;2023-02-01T00:29:14;16.27;;;5.43;;
71166;SDS011;58864;45.928;20.078;2023-02-01T00:31:40;16.33;;;5.10;;
71166;SDS011;58864;45.928;20.078;2023-02-01T00:34:04;15.80;;;4.97;;
71166;SDS011;58864;45.928;20.078;2023-02-01T00:36:29;13.60;;;4.80;;
71166;SDS011;58864;45.928;20.078;2023-02-01T00:38:54;13.60;;;5.47;;
71166;SDS011;58864;45.928;20.078;2023-02-01T00:41:19;12.50;;;5.17;;
71166;SDS011;58864;45.928;20.078;2023-02-01T00:43:44;13.13;;;5.25;;
71166;SDS011;58864;45.928;20.078;2023-02-01T00:46:09;13.20;;;5.50;;
71166;SDS011;58864;45.928;20.078;2023-02-01T00:48:35;15.93;;;5.20;;
71166;SDS011;58864;45.928;20.078;2023-02-01T00:51:03;17.30;;;6.60;;
71166;SDS011;58864;45.928;20.078;2023-02-01T00:53:29;18.50;;;5.88;;
71166;SDS011;58864;45.928;20.078;2023-02-01T00:55:54;16.53;;;6.57;;
71166;SDS011;58864;45.928;20.078;2023-02-01T00:58:18;19.17;;;6.10;;
71166;SDS011;58864;45.928;20.078;2023-02-01T01:00:43;14.53;;;5.67;;
71166;SDS011;58864;45.928;20.078;2023-02-01T01:03:07;16.00;;;5.93;;
71166;SDS011;58864;45.928;20.078;2023-02-01T01:05:45;18.10;;;6.82;;
71166;SDS011;58864;45.928;20.078;2023-02-01T01:08:12;17.88;;;6.57;;
71166;SDS011;58864;45.928;20.078;2023-02-01T01:10:37;16.00;;;6.40;;
71166;SDS011;58864;45.928;20.078;2023-02-01T01:13:01;18.77;;;6.90;;
71166;SDS011;58864;45.928;20.078;2023-02-01T01:15:26;14.87;;;6.30;;
71166;SDS011;58864;45.928;20.078;2023-02-01T01:17:50;18.07;;;6.93;;
71166;SDS011;58864;45.928;20.078;2023-02-01T01:20:15;15.27;;;6.30;;
71166;SDS011;58864;45.928;20.078;2023-02-01T01:22:40;15.32;;;7.18;;
71166;SDS011;58864;45.928;20.078;2023-02-01T01:25:05;15.40;;;6.20;;
71166;SDS011;58864;45.928;20.078;2023-02-01T01:27:29;17.77;;;6.37;;
71166;SDS011;58864;45.928;20.078;2023-02-01T01:29:54;14.23;;;5.72;;
71166;SDS011;58864;45.928;20.078;2023-02-01T01:32:18;16.57;;;6.17;;
71166;SDS011;58864;45.928;20.078;2023-02-01T01:34:43;12.43;;;6.10;;
71166;SDS011;58864;45.928;20.078;2023-02-01T01:37:07;19.55;;;6.53;;
71166;SDS011;58864;45.928;20.078;2023-02-01T01:39:32;13.73;;;5.97;;
71166;SDS011;58864;45.928;20.078;2023-02-01T01:41:57;14.90;;;5.67;;
71166;SDS011;58864;45.928;20.078;2023-02-01T01:47:28;15.05;;;5.93;;
71166;SDS011;58864;45.928;20.078;2023-02-01T01:50:04;19.73;;;6.70;;
71166;SDS011;58864;45.928;20.078;2023-02-01T01:52:32;15.98;;;5.50;;
71166;SDS011;58864;45.928;20.078;2023-02-01T01:54:57;16.58;;;5.45;;
71166;SDS011;58864;45.928;20.078;2023-02-01T01:57:24;15.35;;;5.43;;
71166;SDS011;58864;45.928;20.078;2023-02-01T01:59:53;13.82;;;5.65;;
71166;SDS011;58864;45.928;20.078;2023-02-01T02:02:38;12.43;;;4.97;;
71166;SDS011;58864;45.928;20.078;2023-02-01T02:05:04;15.38;;;5.25;;
71166;SDS011;58864;45.928;20.078;2023-02-01T02:07:30;12.85;;;4.80;;
71166;SDS011;58864;45.928;20.078;2023-02-01T02:09:56;14.68;;;5.32;;
71166;SDS011;58864;45.928;20.078;2023-02-01T02:12:21;12.43;;;4.67;;
71166;SDS011;58864;45.928;20.078;2023-02-01T02:14:45;13.90;;;4.90;;
71166;SDS011;58864;45.928;20.078;2023-02-01T02:34:37;12.45;;;4.25;;
71166;SDS011;58864;45.928;20.078;2023-02-01T02:37:25;12.60;;;4.20;;
71166;SDS011;58864;45.928;20.078;2023-02-01T02:40:10;9.32;;;3.60;;
71166;SDS011;58864;45.928;20.078;2023-02-01T02:42:52;12.25;;;4.20;;
71166;SDS011;58864;45.928;20.078;2023-02-01T02:45:46;11.50;;;3.73;;
71166;SDS011;58864;45.928;20.078;2023-02-01T02:48:42;12.52;;;3.58;;
71166;SDS011;58864;45.928;20.078;2023-02-01T02:51:14;10.38;;;3.83;;
71166;SDS011;58864;45.928;20.078;2023-02-01T02:54:10;9.20;;;3.40;;
71166;SDS011;58864;45.928;20.078;2023-02-01T02:56:56;12.20;;;4.18;;
71166;SDS011;58864;45.928;20.078;2023-02-01T02:59:39;8.97;;;3.57;;
71166;SDS011;58864;45.928;20.078;2023-02-01T03:02:22;14.43;;;4.50;;
71166;SDS011;58864;45.928;20.078;2023-02-01T03:05:08;20.63;;;7.00;;
71166;SDS011;58864;45.928;20.078;2023-02-01T03:13:20;26.63;;;9.00;;
71166;SDS011;58864;45.928;20.078;2023-02-01T03:21:02;10.77;;;3.70;;
71166;SDS011;58864;45.928;20.078;2023-02-01T03:23:31;9.13;;;3.30;;
71166;SDS011;58864;45.928;20.078;2023-02-01T03:25:58;10.93;;;4.65;;
71166;SDS011;58864;45.928;20.078;2023-02-01T03:28:23;11.02;;;4.20;;
71166;SDS011;58864;45.928;20.078;2023-02-01T03:30:49;10.23;;;4.10;;
71166;SDS011;58864;45.928;20.078;2023-02-01T03:33:18;11.00;;;3.83;;
71166;SDS011;58864;45.928;20.078;2023-02-01T03:38:25;8.13;;;3.35;;
71166;SDS011;58864;45.928;20.078;2023-02-01T03:46:47;9.98;;;4.18;;
71166;SDS011;58864;45.928;20.078;2023-02-01T03:49:17;10.63;;;4.38;;
71166;SDS011;58864;45.928;20.078;2023-02-01T03:51:53;9.00;;;3.90;;
71166;SDS011;58864;45.928;20.078;2023-02-01T03:54:18;9.75;;;4.25;;
71166;SDS011;58864;45.928;20.078;2023-02-01T03:56:44;12.77;;;4.73;;
71166;SDS011;58864;45.928;20.078;2023-02-01T03:59:10;9.63;;;4.00;;
71166;SDS011;58864;45.928;20.078;2023-02-01T04:01:35;9.00;;;3.33;;
71166;SDS011;58864;45.928;20.078;2023-02-01T04:03:59;9.37;;;3.43;;
71166;SDS011;58864;45.928;20.078;2023-02-01T04:06:24;10.50;;;3.33;;
71166;SDS011;58864;45.928;20.078;2023-02-01T04:08:49;10.38;;;3.50;;
71166;SDS011;58864;45.928;20.078;2023-02-01T04:11:14;9.00;;;3.22;;
71166;SDS011;58864;45.928;20.078;2023-02-01T04:13:38;9.30;;;3.57;;
71166;SDS011;58864;45.928;20.078;2023-02-01T04:16:03;9.70;;;3.67;;
71166;SDS011;58864;45.928;20.078;2023-02-01T04:18:28;11.83;;;4.07;;
71166;SDS011;58864;45.928;20.078;2023-02-01T04:20:52;13.17;;;4.13;;
71166;SDS011;58864;45.928;20.078;2023-02-01T04:23:17;10.40;;;4.10;;
71166;SDS011;58864;45.928;20.078;2023-02-01T04:25:41;14.53;;;4.50;;
71166;SDS011;58864;45.928;20.078;2023-02-01T04:28:05;11.90;;;4.53;;
71166;SDS011;58864;45.928;20.078;2023-02-01T04:30:30;12.05;;;4.32;;
71166;SDS011;58864;45.928;20.078;2023-02-01T04:32:55;11.23;;;3.90;;
71166;SDS011;58864;45.928;20.078;2023-02-01T04:35:19;11.20;;;3.93;;
71166;SDS011;58864;45.928;20.078;2023-02-01T04:37:44;11.73;;;4.53;;
71166;SDS011;58864;45.928;20.078;2023-02-01T04:40:08;12.82;;;4.70;;
71166;SDS011;58864;45.928;20.078;2023-02-01T04:42:33;11.63;;;4.47;;
71166;SDS011;58864;45.928;20.078;2023-02-01T04:44:57;13.13;;;4.83;;
71166;SDS011;58864;45.928;20.078;2023-02-01T04:47:22;14.03;;;4.93;;
71166;SDS011;58864;45.928;20.078;2023-02-01T04:49:46;12.30;;;4.67;;
71166;SDS011;58864;45.928;20.078;2023-02-01T04:52:11;13.10;;;5.40;;
71166;SDS011;58864;45.928;20.078;2023-02-01T04:54:35;16.13;;;5.72;;
71166;SDS011;58864;45.928;20.078;2023-02-01T04:56:59;17.00;;;5.97;;
71166;SDS011;58864;45.928;20.078;2023-02-01T04:59:24;16.47;;;6.17;;
71166;SDS011;58864;45.928;20.078;2023-02-01T05:01:49;19.52;;;6.80;;
71166;SDS011;58864;45.928;20.078;2023-02-01T05:04:13;15.53;;;5.70;;
71166;SDS011;58864;45.928;20.078;2023-02-01T05:06:37;20.30;;;6.50;;
71166;SDS011;58864;45.928;20.078;2023-02-01T05:09:02;18.77;;;6.40;;
71166;SDS011;58864;45.928;20.078;2023-02-01T05:11:26;18.33;;;6.63;;
71166;SDS011;58864;45.928;20.078;2023-02-01T05:14:10;16.60;;;6.43;;
71166;SDS011;58864;45.928;20.078;2023-02-01T05:16:34;14.50;;;5.37;;
71166;SDS011;58864;45.928;20.078;2023-02-01T05:18:59;12.63;;;4.72;;
71166;SDS011;58864;45.928;20.078;2023-02-01T05:21:24;14.03;;;5.07;;
71166;SDS011;58864;45.928;20.078;2023-02-01T05:23:49;15.90;;;5.35;;
71166;SDS011;58864;45.928;20.078;2023-02-01T05:26:31;10.47;;;4.70;;
71166;SDS011;58864;45.928;20.078;2023-02-01T05:28:56;13.90;;;4.97;;
71166;SDS011;58864;45.928;20.078;2023-02-01T05:31:21;13.80;;;5.35;;
71166;SDS011;58864;45.928;20.078;2023-02-01T05:33:46;20.10;;;6.73;;
71166;SDS011;58864;45.928;20.078;2023-02-01T05:36:10;14.87;;;5.20;;
71166;SDS011;58864;45.928;20.078;2023-02-01T05:38:34;13.50;;;5.57;;
71166;SDS011;58864;45.928;20.078;2023-02-01T05:40:59;15.07;;;5.50;;
71166;SDS011;58864;45.928;20.078;2023-02-01T05:43:23;14.07;;;5.07;;
71166;SDS011;58864;45.928;20.078;2023-02-01T05:45:48;13.73;;;5.43;;
71166;SDS011;58864;45.928;20.078;2023-02-01T05:48:12;15.68;;;5.18;;
71166;SDS011;58864;45.928;20.078;2023-02-01T05:50:37;16.60;;;5.40;;
71166;SDS011;58864;45.928;20.078;2023-02-01T05:53:01;13.00;;;5.10;;
71166;SDS011;58864;45.928;20.078;2023-02-01T05:55:26;11.47;;;5.03;;
71166;SDS011;58864;45.928;20.078;2023-02-01T05:57:50;15.68;;;5.32;;
71166;SDS011;58864;45.928;20.078;2023-02-01T06:00:14;14.43;;;5.97;;
71166;SDS011;58864;45.928;20.078;2023-02-01T06:02:39;18.43;;;6.10;;
71166;SDS011;58864;45.928;20.078;2023-02-01T06:05:04;15.73;;;6.15;;
71166;SDS011;58864;45.928;20.078;2023-02-01T06:07:29;15.38;;;6.45;;
71166;SDS011;58864;45.928;20.078;2023-02-01T06:09:56;14.90;;;5.60;;
71166;SDS011;58864;45.928;20.078;2023-02-01T06:12:20;15.13;;;5.47;;
71166;SDS011;58864;45.928;20.078;2023-02-01T06:14:45;14.27;;;5.83;;
71166;SDS011;58864;45.928;20.078;2023-02-01T06:17:09;17.83;;;6.37;;
71166;SDS011;58864;45.928;20.078;2023-02-01T06:19:34;16.13;;;6.50;;
71166;SDS011;58864;45.928;20.078;2023-02-01T06:21:58;14.65;;;6.20;;
71166;SDS011;58864;45.928;20.078;2023-02-01T06:24:22;20.50;;;8.27;;
71166;SDS011;58864;45.928;20.078;2023-02-01T06:26:47;31.70;;;11.30;;
71166;SDS011;58864;45.928;20.078;2023-02-01T06:29:12;50.63;;;13.43;;
71166;SDS011;58864;45.928;20.078;2023-02-01T06:31:36;31.90;;;9.80;;
71166;SDS011;58864;45.928;20.078;2023-02-01T06:34:01;36.80;;;11.97;;
71166;SDS011;58864;45.928;20.078;2023-02-01T06:36:26;28.83;;;11.40;;
71166;SDS011;58864;45.928;20.078;2023-02-01T06:38:51;20.60;;;8.13;;
71166;SDS011;58864;45.928;20.078;2023-02-01T06:41:16;16.35;;;7.47;;
71166;SDS011;58864;45.928;20.078;2023-02-01T06:43:40;17.03;;;6.93;;
71166;SDS011;58864;45.928;20.078;2023-02-01T06:46:06;16.73;;;7.70;;
71166;SDS011;58864;45.928;20.078;2023-02-01T06:48:32;20.88;;;8.25;;
71166;SDS011;58864;45.928;20.078;2023-02-01T06:50:57;21.80;;;8.15;;
71166;SDS011;58864;45.928;20.078;2023-02-01T06:53:21;18.73;;;6.87;;
71166;SDS011;58864;45.928;20.078;2023-02-01T06:55:55;18.40;;;7.68;;
71166;SDS011;58864;45.928;20.078;2023-02-01T06:58:27;20.20;;;7.73;;
71166;SDS011;58864;45.928;20.078;2023-02-01T07:00:52;17.15;;;7.53;;
71166;SDS011;58864;45.928;20.078;2023-02-01T07:03:17;16.45;;;6.78;;
71166;SDS011;58864;45.928;20.078;2023-02-01T07:05:42;18.27;;;7.03;;
71166;SDS011;58864;45.928;20.078;2023-02-01T07:08:06;20.80;;;7.70;;
71166;SDS011;58864;45.928;20.078;2023-02-01T07:10:31;18.92;;;7.28;;
71166;SDS011;58864;45.928;20.078;2023-02-01T07:12:58;18.13;;;7.27;;
71166;SDS011;58864;45.928;20.078;2023-02-01T07:15:23;20.67;;;6.88;;
71166;SDS011;58864;45.928;20.078;2023-02-01T07:17:47;20.60;;;7.07;;
71166;SDS011;58864;45.928;20.078;2023-02-01T07:20:13;23.45;;;7.45;;
71166;SDS011;58864;45.928;20.078;2023-02-01T07:22:37;16.77;;;6.30;;
71166;SDS011;58864;45.928;20.078;2023-02-01T07:25:02;16.63;;;5.50;;
71166;SDS011;58864;45.928;20.078;2023-02-01T07:27:26;16.83;;;7.15;;
71166;SDS011;58864;45.928;20.078;2023-02-01T07:29:51;14.10;;;6.07;;
71166;SDS011;58864;45.928;20.078;2023-02-01T07:32:16;18.23;;;7.13;;
71166;SDS011;58864;45.928;20.078;2023-02-01T07:34:41;16.05;;;6.15;;
71166;SDS011;58864;45.928;20.078;2023-02-01T07:37:06;16.77;;;6.30;;
71166;SDS011;58864;45.928;20.078;2023-02-01T07:39:30;14.83;;;7.10;;
71166;SDS011;58864;45.928;20.078;2023-02-01T07:41:55;13.93;;;5.50;;
71166;SDS011;58864;45.928;20.078;2023-02-01T07:44:20;16.10;;;6.85;;
71166;SDS011;58864;45.928;20.078;2023-02-01T07:46:47;15.43;;;5.87;;
71166;SDS011;58864;45.928;20.078;2023-02-01T07:49:11;15.25;;;5.28;;
71166;SDS011;58864;45.928;20.078;2023-02-01T07:51:37;13.40;;;5.10;;
71166;SDS011;58864;45.928;20.078;2023-02-01T07:54:02;25.55;;;9.70;;
71166;SDS011;58864;45.928;20.078;2023-02-01T07:56:26;18.67;;;7.97;;
71166;SDS011;58864;45.928;20.078;2023-02-01T07:58:51;18.33;;;7.23;;
71166;SDS011;58864;45.928;20.078;2023-02-01T08:01:17;20.52;;;7.47;;
71166;SDS011;58864;45.928;20.078;2023-02-01T08:03:48;23.30;;;8.93;;
71166;SDS011;58864;45.928;20.078;2023-02-01T08:06:13;23.17;;;7.22;;
71166;SDS011;58864;45.928;20.078;2023-02-01T08:08:38;18.57;;;6.27;;
71166;SDS011;58864;45.928;20.078;2023-02-01T08:11:03;18.20;;;5.87;;
71166;SDS011;58864;45.928;20.078;2023-02-01T08:13:29;18.48;;;7.28;;
71166;SDS011;58864;45.928;20.078;2023-02-01T08:15:57;18.30;;;6.80;;
71166;SDS011;58864;45.928;20.078;2023-02-01T08:18:22;16.23;;;6.50;;
71166;SDS011;58864;45.928;20.078;2023-02-01T08:20:46;15.00;;;5.95;;
71166;SDS011;58864;45.928;20.078;2023-02-01T08:23:11;13.00;;;6.00;;
71166;SDS011;58864;45.928;20.078;2023-02-01T08:25:36;11.75;;;5.30;;
71166;SDS011;58864;45.928;20.078;2023-02-01T08:28:00;11.00;;;4.13;;
71166;SDS011;58864;45.928;20.078;2023-02-01T08:30:25;12.77;;;3.90;;
71166;SDS011;58864;45.928;20.078;2023-02-01T08:32:51;10.98;;;3.42;;
71166;SDS011;58864;45.928;20.078;2023-02-01T08:35:15;12.13;;;3.10;;
71166;SDS011;58864;45.928;20.078;2023-02-01T08:37:40;12.10;;;3.33;;
71166;SDS011;58864;45.928;20.078;2023-02-01T08:40:04;11.90;;;3.40;;
71166;SDS011;58864;45.928;20.078;2023-02-01T08:42:30;9.75;;;3.00;;
71166;SDS011;58864;45.928;20.078;2023-02-01T08:45:12;12.73;;;3.70;;
71166;SDS011;58864;45.928;20.078;2023-02-01T08:47:37;10.55;;;3.75;;
71166;SDS011;58864;45.928;20.078;2023-02-01T08:50:02;12.00;;;3.90;;
71166;SDS011;58864;45.928;20.078;2023-02-01T08:52:26;14.13;;;4.78;;
71166;SDS011;58864;45.928;20.078;2023-02-01T08:54:51;9.53;;;3.27;;
71166;SDS011;58864;45.928;20.078;2023-02-01T08:57:15;14.50;;;3.70;;
71166;SDS011;58864;45.928;20.078;2023-02-01T08:59:40;11.23;;;3.40;;
71166;SDS011;58864;45.928;20.078;2023-02-01T09:02:05;8.83;;;2.97;;
71166;SDS011;58864;45.928;20.078;2023-02-01T09:04:29;10.18;;;3.08;;
71166;SDS011;58864;45.928;20.078;2023-02-01T09:06:53;11.97;;;3.77;;
71166;SDS011;58864;45.928;20.078;2023-02-01T09:09:19;14.18;;;2.83;;
71166;SDS011;58864;45.928;20.078;2023-02-01T09:11:44;9.60;;;3.20;;
71166;SDS011;58864;45.928;20.078;2023-02-01T09:14:08;9.27;;;3.03;;
71166;SDS011;58864;45.928;20.078;2023-02-01T09:16:32;12.40;;;4.10;;
71166;SDS011;58864;45.928;20.078;2023-02-01T09:18:57;8.77;;;2.70;;
71166;SDS011;58864;45.928;20.078;2023-02-01T09:21:21;7.20;;;2.23;;
71166;SDS011;58864;45.928;20.078;2023-02-01T09:23:46;7.20;;;2.40;;
71166;SDS011;58864;45.928;20.078;2023-02-01T09:26:12;8.43;;;3.22;;
71166;SDS011;58864;45.928;20.078;2023-02-01T09:28:37;15.50;;;4.17;;
71166;SDS011;58864;45.928;20.078;2023-02-01T09:31:01;12.27;;;3.33;;
71166;SDS011;58864;45.928;20.078;2023-02-01T09:33:26;10.50;;;3.30;;
71166;SDS011;58864;45.928;20.078;2023-02-01T09:35:55;14.27;;;4.60;;
71166;SDS011;58864;45.928;20.078;2023-02-01T09:38:20;15.30;;;4.20;;
71166;SDS011;58864;45.928;20.078;2023-02-01T09:40:45;12.17;;;3.27;;
71166;SDS011;58864;45.928;20.078;2023-02-01T09:48:15;12.87;;;4.10;;
71166;SDS011;58864;45.928;20.078;2023-02-01T09:50:44;11.07;;;2.88;;
71166;SDS011;58864;45.928;20.078;2023-02-01T09:55:48;12.32;;;4.35;;
71166;SDS011;58864;45.928;20.078;2023-02-01T09:58:36;23.98;;;7.20;;
71166;SDS011;58864;45.928;20.078;2023-02-01T10:01:09;34.97;;;10.40;;
71166;SDS011;58864;45.928;20.078;2023-02-01T10:03:38;20.38;;;7.18;;
71166;SDS011;58864;45.928;20.078;2023-02-01T10:22:44;13.55;;;6.45;;
71166;SDS011;58864;45.928;20.078;2023-02-01T10:27:46;17.60;;;7.78;;
71166;SDS011;58864;45.928;20.078;2023-02-01T10:30:21;18.90;;;7.35;;
71166;SDS011;58864;45.928;20.078;2023-02-01T10:32:55;19.77;;;7.50;;
71166;SDS011;58864;45.928;20.078;2023-02-01T10:35:24;21.15;;;8.68;;
71166;SDS011;58864;45.928;20.078;2023-02-01T10:37:52;18.20;;;7.95;;
71166;SDS011;58864;45.928;20.078;2023-02-01T10:40:19;22.70;;;6.50;;
71166;SDS011;58864;45.928;20.078;2023-02-01T10:42:49;18.20;;;8.20;;
71166;SDS011;58864;45.928;20.078;2023-02-01T10:45:19;17.50;;;6.93;;
71166;SDS011;58864;45.928;20.078;2023-02-01T10:47:45;17.90;;;7.07;;
71166;SDS011;58864;45.928;20.078;2023-02-01T10:50:13;21.45;;;7.43;;
71166;SDS011;58864;45.928;20.078;2023-02-01T10:52:51;24.80;;;8.40;;
71166;SDS011;58864;45.928;20.078;2023-02-01T10:57:58;20.55;;;7.72;;
71166;SDS011;58864;45.928;20.078;2023-02-01T11:00:28;28.45;;;12.68;;
71166;SDS011;58864;45.928;20.078;2023-02-01T11:02:53;21.10;;;9.02;;
71166;SDS011;58864;45.928;20.078;2023-02-01T11:05:18;21.27;;;8.20;;
71166;SDS011;58864;45.928;20.078;2023-02-01T11:07:47;24.60;;;11.30;;
71166;SDS011;58864;45.928;20.078;2023-02-01T11:13:11;19.20;;;8.73;;
71166;SDS011;58864;45.928;20.078;2023-02-01T11:15:42;14.90;;;5.93;;
71166;SDS011;58864;45.928;20.078;2023-02-01T11:18:17;17.00;;;5.40;;
71166;SDS011;58864;45.928;20.078;2023-02-01T11:20:43;27.13;;;8.32;;
71166;SDS011;58864;45.928;20.078;2023-02-01T11:23:16;14.73;;;5.82;;
71166;SDS011;58864;45.928;20.078;2023-02-01T11:25:48;18.13;;;6.80;;
71166;SDS011;58864;45.928;20.078;2023-02-01T11:28:13;22.33;;;9.32;;
71166;SDS011;58864;45.928;20.078;2023-02-01T11:30:39;23.37;;;6.10;;
71166;SDS011;58864;45.928;20.078;2023-02-01T11:33:07;14.23;;;6.75;;
71166;SDS011;58864;45.928;20.078;2023-02-01T11:35:38;16.10;;;6.93;;
71166;SDS011;58864;45.928;20.078;2023-02-01T11:38:09;19.85;;;6.78;;
71166;SDS011;58864;45.928;20.078;2023-02-01T11:40:37;15.30;;;7.05;;
71166;SDS011;58864;45.928;20.078;2023-02-01T11:43:13;21.63;;;7.77;;
71166;SDS011;58864;45.928;20.078;2023-02-01T11:45:56;16.58;;;6.90;;
71166;SDS011;58864;45.928;20.078;2023-02-01T11:48:26;12.90;;;5.65;;
71166;SDS011;58864;45.928;20.078;2023-02-01T11:50:58;12.50;;;5.10;;
71166;SDS011;58864;45.928;20.078;2023-02-01T12:05:20;17.63;;;7.55;;
71166;SDS011;58864;45.928;20.078;2023-02-01T12:13:23;33.78;;;12.20;;
71166;SDS011;58864;45.928;20.078;2023-02-01T12:30:00;26.75;;;11.05;;
71166;SDS011;58864;45.928;20.078;2023-02-01T12:35:42;17.55;;;6.85;;
71166;SDS011;58864;45.928;20.078;2023-02-01T12:38:24;14.77;;;6.33;;
71166;SDS011;58864;45.928;20.078;2023-02-01T12:41:06;15.68;;;6.45;;
71166;SDS011;58864;45.928;20.078;2023-02-01T12:46:21;21.20;;;6.68;;
71166;SDS011;58864;45.928;20.078;2023-02-01T12:48:58;13.88;;;6.43;;
71166;SDS011;58864;45.928;20.078;2023-02-01T12:51:44;20.00;;;7.37;;
71166;SDS011;58864;45.928;20.078;2023-02-01T12:57:03;21.52;;;8.18;;
71166;SDS011;58864;45.928;20.078;2023-02-01T13:02:22;21.45;;;6.47;;
71166;SDS011;58864;45.928;20.078;2023-02-01T13:07:35;25.77;;;9.70;;
71166;SDS011;58864;45.928;20.078;2023-02-01T13:15:39;22.63;;;8.15;;
71166;SDS011;58864;45.928;20.078;2023-02-01T13:18:18;22.63;;;7.97;;
71166;SDS011;58864;45.928;20.078;2023-02-01T13:20:49;15.05;;;6.53;;
71166;SDS011;58864;45.928;20.078;2023-02-01T13:23:41;20.45;;;8.07;;
71166;SDS011;58864;45.928;20.078;2023-02-01T13:26:09;24.63;;;9.02;;
71166;SDS011;58864;45.928;20.078;2023-02-01T13:36:26;24.77;;;10.20;;
71166;SDS011;58864;45.928;20.078;2023-02-01T13:41:40;24.75;;;9.73;;
71166;SDS011;58864;45.928;20.078;2023-02-01T13:44:17;25.17;;;10.18;;
71166;SDS011;58864;45.928;20.078;2023-02-01T13:46:46;27.33;;;11.43;;
71166;SDS011;58864;45.928;20.078;2023-02-01T13:49:18;25.27;;;10.70;;
71166;SDS011;58864;45.928;20.078;2023-02-01T13:51:46;24.17;;;10.77;;
71166;SDS011;58864;45.928;20.078;2023-02-01T13:54:32;26.90;;;11.55;;
71166;SDS011;58864;45.928;20.078;2023-02-01T13:56:59;30.33;;;13.57;;
71166;SDS011;58864;45.928;20.078;2023-02-01T14:05:12;39.95;;;16.13;;
71166;SDS011;58864;45.928;20.078;2023-02-01T14:23:58;24.97;;;11.50;;
71166;SDS011;58864;45.928;20.078;2023-02-01T14:26:40;23.48;;;10.93;;
71166;SDS011;58864;45.928;20.078;2023-02-01T14:31:52;32.42;;;13.25;;
71166;SDS011;58864;45.928;20.078;2023-02-01T14:34:24;31.77;;;13.10;;
71166;SDS011;58864;45.928;20.078;2023-02-01T14:37:03;30.40;;;12.50;;
71166;SDS011;58864;45.928;20.078;2023-02-01T14:39:33;31.50;;;13.88;;
71166;SDS011;58864;45.928;20.078;2023-02-01T14:42:03;40.17;;;16.35;;
71166;SDS011;58864;45.928;20.078;2023-02-01T14:44:31;61.75;;;26.20;;
71166;SDS011;58864;45.928;20.078;2023-02-01T14:49:31;39.33;;;17.30;;
71166;SDS011;58864;45.928;20.078;2023-02-01T14:51:57;37.97;;;15.95;;
71166;SDS011;58864;45.928;20.078;2023-02-01T14:54:23;39.50;;;17.38;;
71166;SDS011;58864;45.928;20.078;2023-02-01T14:56:48;48.58;;;20.55;;
71166;SDS011;58864;45.928;20.078;2023-02-01T14:59:14;119.85;;;39.70;;
71166;SDS011;58864;45.928;20.078;2023-02-01T15:01:45;111.87;;;36.10;;
71166;SDS011;58864;45.928;20.078;2023-02-01T15:04:15;94.43;;;33.38;;
71166;SDS011;58864;45.928;20.078;2023-02-01T15:06:48;86.80;;;31.60;;
71166;SDS011;58864;45.928;20.078;2023-02-01T15:09:16;60.78;;;22.00;;
71166;SDS011;58864;45.928;20.078;2023-02-01T15:14:25;29.10;;;12.00;;
71166;SDS011;58864;45.928;20.078;2023-02-01T15:16:54;20.05;;;7.25;;
71166;SDS011;58864;45.928;20.078;2023-02-01T15:19:23;27.73;;;9.85;;
71166;SDS011;58864;45.928;20.078;2023-02-01T15:21:50;25.43;;;9.20;;
71166;SDS011;58864;45.928;20.078;2023-02-01T15:24:20;19.92;;;7.75;;
71166;SDS011;58864;45.928;20.078;2023-02-01T15:26:45;36.05;;;14.23;;
71166;SDS011;58864;45.928;20.078;2023-02-01T15:29:13;48.17;;;17.73;;
71166;SDS011;58864;45.928;20.078;2023-02-01T15:31:46;33.15;;;14.48;;
71166;SDS011;58864;45.928;20.078;2023-02-01T15:34:12;21.65;;;8.45;;
71166;SDS011;58864;45.928;20.078;2023-02-01T15:36:37;23.63;;;8.57;;
71166;SDS011;58864;45.928;20.078;2023-02-01T15:41:51;24.95;;;10.00;;
71166;SDS011;58864;45.928;20.078;2023-02-01T15:44:20;28.02;;;11.20;;
71166;SDS011;58864;45.928;20.078;2023-02-01T15:46:51;23.90;;;9.27;;
71166;SDS011;58864;45.928;20.078;2023-02-01T15:51:49;17.83;;;7.13;;
71166;SDS011;58864;45.928;20.078;2023-02-01T15:54:16;15.37;;;5.80;;
71166;SDS011;58864;45.928;20.078;2023-02-01T15:56:49;11.02;;;4.53;;
71166;SDS011;58864;45.928;20.078;2023-02-01T15:59:19;18.55;;;5.90;;
71166;SDS011;58864;45.928;20.078;2023-02-01T16:01:45;15.38;;;6.30;;
71166;SDS011;58864;45.928;20.078;2023-02-01T16:04:21;21.73;;;7.55;;
71166;SDS011;58864;45.928;20.078;2023-02-01T16:09:15;15.00;;;5.93;;
71166;SDS011;58864;45.928;20.078;2023-02-01T16:11:46;16.45;;;6.15;;
71166;SDS011;58864;45.928;20.078;2023-02-01T16:14:11;9.45;;;3.60;;
71166;SDS011;58864;45.928;20.078;2023-02-01T16:16:36;11.97;;;4.20;;
71166;SDS011;58864;45.928;20.078;2023-02-01T16:19:00;11.10;;;4.60;;
71166;SDS011;58864;45.928;20.078;2023-02-01T16:21:24;13.93;;;5.20;;
71166;SDS011;58864;45.928;20.078;2023-02-01T16:23:49;10.98;;;4.40;;
71166;SDS011;58864;45.928;20.078;2023-02-01T16:26:15;19.20;;;7.35;;
71166;SDS011;58864;45.928;20.078;2023-02-01T16:28:39;17.60;;;6.40;;
71166;SDS011;58864;45.928;20.078;2023-02-01T16:31:04;17.50;;;6.73;;
71166;SDS011;58864;45.928;20.078;2023-02-01T16:33:28;17.00;;;6.45;;
71166;SDS011;58864;45.928;20.078;2023-02-01T16:35:54;17.93;;;6.63;;
71166;SDS011;58864;45.928;20.078;2023-02-01T16:38:21;14.70;;;6.05;;
71166;SDS011;58864;45.928;20.078;2023-02-01T16:40:46;16.83;;;6.45;;
71166;SDS011;58864;45.928;20.078;2023-02-01T16:43:18;15.33;;;6.20;;
71166;SDS011;58864;45.928;20.078;2023-02-01T16:45:46;14.02;;;5.82;;
71166;SDS011;58864;45.928;20.078;2023-02-01T16:48:24;17.13;;;7.25;;
71166;SDS011;58864;45.928;20.078;2023-02-01T16:50:53;17.40;;;6.63;;
71166;SDS011;58864;45.928;20.078;2023-02-01T16:53:19;18.73;;;7.45;;
71166;SDS011;58864;45.928;20.078;2023-02-01T16:55:44;23.50;;;8.93;;
71166;SDS011;58864;45.928;20.078;2023-02-01T16:58:11;27.55;;;10.10;;
71166;SDS011;58864;45.928;20.078;2023-02-01T17:00:35;24.33;;;8.50;;
71166;SDS011;58864;45.928;20.078;2023-02-01T17:03:03;28.80;;;10.85;;
71166;SDS011;58864;45.928;20.078;2023-02-01T17:05:29;29.08;;;11.63;;
71166;SDS011;58864;45.928;20.078;2023-02-01T17:07:53;27.13;;;10.47;;
71166;SDS011;58864;45.928;20.078;2023-02-01T17:10:21;24.13;;;10.73;;
71166;SDS011;58864;45.928;20.078;2023-02-01T17:12:50;24.77;;;10.43;;
71166;SDS011;58864;45.928;20.078;2023-02-01T17:15:14;26.77;;;11.25;;